createdAt,value
2022-10-24T00:01:18.882Z,19.33
2022-10-24T00:03:46.300Z,19.19
2022-10-24T00:06:13.806Z,19.22
2022-10-24T00:08:43.026Z,19.12
2022-10-24T00:11:23.471Z,19.02
2022-10-24T00:13:51.500Z,18.90
2022-10-24T00:16:19.171Z,18.87
2022-10-24T00:18:46.668Z,18.87
2022-10-24T00:21:14.214Z,18.65
2022-10-24T00:23:41.537Z,18.58
2022-10-24T00:26:09.013Z,18.50
2022-10-24T00:28:37.241Z,18.33
2022-10-24T00:31:06.375Z,18.26
2022-10-24T00:33:34.365Z,18.18
2022-10-24T00:36:01.740Z,18.18
2022-10-24T00:38:29.036Z,18.16
2022-10-24T00:40:56.331Z,17.99
2022-10-24T00:43:26.164Z,17.90
2022-10-24T00:46:01.339Z,17.66
2022-10-24T00:48:41.153Z,17.57
2022-10-24T00:51:27.286Z,17.44
2022-10-24T00:56:34.904Z,16.98
2022-10-24T00:59:04.336Z,16.89
2022-10-24T01:01:32.206Z,16.71
2022-10-24T01:03:59.736Z,16.46
2022-10-24T01:06:38.845Z,16.32
2022-10-24T01:09:18.247Z,16.12
2022-10-24T01:12:01.307Z,16.10
2022-10-24T01:14:36.127Z,16.36
2022-10-24T01:17:30.944Z,16.41
2022-10-24T01:20:12.165Z,16.07
2022-10-24T01:22:51.436Z,15.90
2022-10-24T01:25:22.560Z,15.77
2022-10-24T01:28:15.617Z,15.51
2022-10-24T01:30:48.979Z,15.51
2022-10-24T01:33:19.109Z,15.91
2022-10-24T01:36:06.142Z,16.17
2022-10-24T01:38:46.684Z,16.56
2022-10-24T01:41:26.457Z,16.89
2022-10-24T01:44:03.028Z,17.37
2022-10-24T01:46:37.791Z,17.19
2022-10-24T01:49:17.633Z,17.25
2022-10-24T01:51:47.190Z,17.54
2022-10-24T01:54:15.478Z,17.31
2022-10-24T01:56:42.804Z,17.08
2022-10-24T01:59:28.499Z,17.14
2022-10-24T02:02:36.356Z,17.13
2022-10-24T02:05:29.898Z,17.08
2022-10-24T02:08:03.261Z,16.91
2022-10-24T02:10:42.297Z,17.16
2022-10-24T02:13:17.112Z,17.13
2022-10-24T02:15:49.377Z,16.75
2022-10-24T02:18:16.884Z,16.75
2022-10-24T02:21:10.101Z,16.85
2022-10-24T02:24:01.375Z,17.05
2022-10-24T02:26:54.728Z,16.89
2022-10-24T02:29:48.139Z,16.96
2022-10-24T02:32:35.253Z,17.07
2022-10-24T02:35:04.465Z,17.12
2022-10-24T02:37:33.813Z,17.05
2022-10-24T02:40:02.038Z,16.87
2022-10-24T02:42:30.816Z,16.85
2022-10-24T02:44:58.375Z,16.92
2022-10-24T02:47:26.634Z,16.84
2022-10-24T02:49:54.302Z,17.03
2022-10-24T02:52:23.519Z,17.32
2022-10-24T02:54:51.350Z,17.16
2022-10-24T02:57:18.900Z,17.58
2022-10-24T02:59:46.246Z,17.52
2022-10-24T03:02:13.604Z,17.72
2022-10-24T03:04:40.976Z,17.64
2022-10-24T03:07:08.435Z,17.75
2022-10-24T03:09:35.949Z,17.57
2022-10-24T03:12:03.855Z,17.50
2022-10-24T03:14:31.173Z,17.54
2022-10-24T03:16:58.520Z,17.67
2022-10-24T03:19:25.821Z,17.65
2022-10-24T03:21:53.216Z,17.64
2022-10-24T03:24:31.042Z,17.63
2022-10-24T03:27:07.821Z,17.54
2022-10-24T03:29:35.272Z,17.76
2022-10-24T03:32:02.674Z,17.68
2022-10-24T03:34:30.121Z,17.88
2022-10-24T03:36:57.409Z,17.80
2022-10-24T03:39:24.751Z,17.71
2022-10-24T03:41:52.085Z,17.73
2022-10-24T03:44:19.423Z,17.64
2022-10-24T03:46:46.718Z,17.63
2022-10-24T03:49:14.069Z,17.51
2022-10-24T03:51:41.477Z,17.51
2022-10-24T03:54:09.489Z,17.44
2022-10-24T03:56:36.824Z,17.40
2022-10-24T03:59:04.122Z,17.32
2022-10-24T04:01:31.509Z,17.16
2022-10-24T04:03:58.882Z,17.16
2022-10-24T04:06:26.239Z,17.05
2022-10-24T04:08:53.604Z,17.13
2022-10-24T04:11:20.936Z,17.08
2022-10-24T04:13:48.240Z,17.05
2022-10-24T04:16:15.653Z,16.99
2022-10-24T04:18:42.967Z,16.95
2022-10-24T04:21:10.614Z,16.97
2022-10-24T04:23:41.072Z,17.00
2022-10-24T04:26:09.226Z,17.00
2022-10-24T04:28:36.677Z,16.93
2022-10-24T04:31:04.166Z,16.89
2022-10-24T04:33:31.550Z,16.88
2022-10-24T04:35:58.888Z,16.80
2022-10-24T04:38:27.828Z,16.83
2022-10-24T04:40:57.381Z,16.79
2022-10-24T04:43:25.064Z,16.79
2022-10-24T04:45:52.428Z,16.77
2022-10-24T04:48:25.912Z,16.78
2022-10-24T04:50:53.225Z,16.79
2022-10-24T04:53:20.653Z,16.84
2022-10-24T04:55:48.025Z,16.74
2022-10-24T04:58:15.300Z,16.72
2022-10-24T05:00:46.555Z,16.62
2022-10-24T05:03:14.435Z,16.62
2022-10-24T05:05:41.729Z,16.68
2022-10-24T05:08:09.053Z,16.69
2022-10-24T05:10:36.433Z,16.52
2022-10-24T05:13:04.256Z,16.66
2022-10-24T05:15:31.668Z,16.78
2022-10-24T05:17:59.465Z,17.25
2022-10-24T05:20:27.155Z,17.33
2022-10-24T05:22:54.619Z,17.33
2022-10-24T05:25:21.916Z,17.43
2022-10-24T05:27:49.324Z,17.63
2022-10-24T05:30:16.747Z,17.54
2022-10-24T05:32:44.383Z,17.76
2022-10-24T05:35:11.931Z,17.49
2022-10-24T05:37:39.698Z,17.59
2022-10-24T05:40:08.580Z,17.55
2022-10-24T05:42:36.573Z,17.77
2022-10-24T05:45:05.742Z,17.61
2022-10-24T05:47:33.036Z,17.63
2022-10-24T05:50:00.365Z,17.60
2022-10-24T05:52:27.827Z,17.27
2022-10-24T05:55:06.369Z,17.00
2022-10-24T05:57:35.217Z,16.88
2022-10-24T06:00:03.021Z,16.74
2022-10-24T06:02:40.126Z,16.67
2022-10-24T06:05:09.077Z,16.76
2022-10-24T06:07:36.947Z,16.49
2022-10-24T06:10:06.157Z,15.97
2022-10-24T06:12:33.698Z,15.71
2022-10-24T06:15:01.117Z,15.51
2022-10-24T06:17:28.529Z,16.09
2022-10-24T06:19:55.821Z,15.80
2022-10-24T06:22:27.771Z,15.80
2022-10-24T06:24:55.316Z,15.57
2022-10-24T06:27:23.397Z,15.35
2022-10-24T06:29:50.678Z,15.18
2022-10-24T06:32:18.104Z,14.95
2022-10-24T06:34:45.444Z,14.93
2022-10-24T06:37:12.705Z,14.89
2022-10-24T06:39:40.107Z,14.76
2022-10-24T06:42:07.519Z,14.62
2022-10-24T06:44:38.464Z,14.46
2022-10-24T06:47:06.875Z,14.45
2022-10-24T06:49:34.245Z,14.51
2022-10-24T06:52:01.633Z,14.57
2022-10-24T06:54:30.458Z,14.57
2022-10-24T06:56:58.053Z,14.45
2022-10-24T06:59:25.538Z,14.39
2022-10-24T07:01:53.075Z,14.39
2022-10-24T07:04:20.703Z,14.44
2022-10-24T07:06:48.093Z,14.39
2022-10-24T07:09:15.827Z,14.35
2022-10-24T07:11:43.824Z,14.21
2022-10-24T07:14:11.897Z,14.17
2022-10-24T07:16:39.735Z,14.07
2022-10-24T07:19:07.492Z,14.12
2022-10-24T07:21:35.145Z,14.06
2022-10-24T07:24:02.665Z,14.01
2022-10-24T07:26:30.592Z,13.99
2022-10-24T07:31:35.651Z,14.10
2022-10-24T07:34:05.904Z,14.06
2022-10-24T07:36:33.593Z,14.22
2022-10-24T07:39:01.342Z,14.07
2022-10-24T07:41:31.005Z,14.13
2022-10-24T07:43:59.678Z,14.18
2022-10-24T07:46:27.101Z,14.13
2022-10-24T07:48:54.858Z,14.13
2022-10-24T07:51:22.600Z,14.16
2022-10-24T07:53:50.277Z,14.26
2022-10-24T07:56:18.180Z,14.35
2022-10-24T07:58:46.881Z,14.38
2022-10-24T08:01:17.969Z,14.32
2022-10-24T08:03:45.944Z,14.40
2022-10-24T08:06:19.251Z,14.44
2022-10-24T08:08:46.834Z,14.60
2022-10-24T08:11:21.469Z,14.62
2022-10-24T08:13:49.881Z,14.57
2022-10-24T08:16:19.272Z,14.63
2022-10-24T08:18:46.907Z,14.68
2022-10-24T08:21:16.572Z,14.71
2022-10-24T08:23:45.990Z,14.80
2022-10-24T08:26:16.399Z,14.95
2022-10-24T08:28:45.347Z,15.09
2022-10-24T08:31:15.388Z,15.06
2022-10-24T08:33:43.047Z,15.01
2022-10-24T08:36:30.911Z,15.02
2022-10-24T08:38:58.913Z,14.90
2022-10-24T08:41:26.135Z,15.10
2022-10-24T08:43:54.685Z,15.02
2022-10-24T08:46:59.858Z,15.05
2022-10-24T08:49:50.704Z,15.11
2022-10-24T08:52:33.183Z,15.07
2022-10-24T08:55:16.543Z,15.12
2022-10-24T08:57:54.918Z,15.08
2022-10-24T09:00:25.274Z,15.05
2022-10-24T09:03:04.290Z,15.04
2022-10-24T09:05:41.402Z,15.02
2022-10-24T09:08:34.629Z,15.09
2022-10-24T09:11:04.356Z,15.16
2022-10-24T09:13:33.263Z,15.18
2022-10-24T09:16:00.562Z,15.24
2022-10-24T09:18:38.333Z,15.39
2022-10-24T09:21:09.873Z,15.53
2022-10-24T09:23:38.096Z,15.55
2022-10-24T09:26:15.116Z,15.61
2022-10-24T09:28:43.089Z,15.72
2022-10-24T09:31:17.156Z,15.80
2022-10-24T09:33:46.374Z,15.79
2022-10-24T09:36:17.262Z,15.72
2022-10-24T09:38:46.824Z,15.80
2022-10-24T09:41:19.304Z,15.81
2022-10-24T09:43:47.023Z,15.75
2022-10-24T09:46:18.386Z,15.58
2022-10-24T09:49:00.238Z,15.63
2022-10-24T09:51:35.728Z,15.53
2022-10-24T09:54:07.608Z,15.48
2022-10-24T09:56:44.561Z,15.36
2022-10-24T09:59:30.931Z,15.32
2022-10-24T10:02:19.619Z,15.40
2022-10-24T10:05:03.314Z,15.44
2022-10-24T10:07:42.208Z,15.45
2022-10-24T10:10:26.301Z,15.45
2022-10-24T10:13:24.031Z,15.41
2022-10-24T10:15:53.626Z,15.45
2022-10-24T10:18:22.592Z,15.49
2022-10-24T10:20:59.761Z,15.48
2022-10-24T10:23:32.662Z,15.59
2022-10-24T10:26:16.583Z,15.69
2022-10-24T10:29:06.265Z,15.82
2022-10-24T10:32:07.030Z,15.77
2022-10-24T10:34:40.524Z,15.71
2022-10-24T10:37:25.298Z,15.90
2022-10-24T10:40:01.215Z,16.14
2022-10-24T10:43:04.033Z,16.15
2022-10-24T10:45:41.945Z,16.17
2022-10-24T10:48:18.155Z,16.33
2022-10-24T10:51:17.954Z,16.42
2022-10-24T10:54:04.318Z,16.45
2022-10-24T10:56:43.144Z,16.52
2022-10-24T10:59:43.740Z,16.58
2022-10-24T11:02:17.141Z,16.62
2022-10-24T11:04:51.759Z,16.67
2022-10-24T11:07:30.995Z,16.79
2022-10-24T11:10:01.594Z,16.88
2022-10-24T11:12:39.133Z,16.94
2022-10-24T11:15:23.355Z,17.01
2022-10-24T11:18:01.990Z,17.00
2022-10-24T11:20:36.123Z,16.98
2022-10-24T11:23:22.186Z,16.98
2022-10-24T11:25:52.602Z,16.93
2022-10-24T11:28:29.407Z,16.89
2022-10-24T11:31:00.386Z,16.89
2022-10-24T11:33:38.230Z,16.86
2022-10-24T11:36:16.537Z,16.89
2022-10-24T11:39:02.717Z,16.84
2022-10-24T11:41:34.443Z,16.86
2022-10-24T11:44:24.086Z,16.82
2022-10-24T11:47:25.613Z,16.77
2022-10-24T11:50:11.734Z,16.76
2022-10-24T11:53:04.676Z,16.81
2022-10-24T11:55:38.854Z,16.84
2022-10-24T11:58:19.128Z,16.97
2022-10-24T12:01:10.746Z,17.04
2022-10-24T12:03:48.162Z,17.11
2022-10-24T12:06:40.405Z,17.16
2022-10-24T12:09:28.521Z,17.20
2022-10-24T12:12:29.071Z,17.11
2022-10-24T12:15:27.186Z,17.06
2022-10-24T12:18:00.467Z,17.06
2022-10-24T12:20:28.194Z,17.13
2022-10-24T12:22:55.779Z,17.07
2022-10-24T12:25:35.649Z,17.07
2022-10-24T12:28:19.959Z,17.03
2022-10-24T12:31:08.146Z,16.96
2022-10-24T12:33:35.544Z,16.92
2022-10-24T12:36:02.824Z,16.95
2022-10-24T12:38:30.069Z,16.84
2022-10-24T12:40:59.220Z,16.87
2022-10-24T12:43:34.756Z,16.87
2022-10-24T12:46:15.850Z,16.79
2022-10-24T12:49:00.672Z,16.85
2022-10-24T12:51:28.419Z,16.78
2022-10-24T12:54:03.946Z,16.82
2022-10-24T12:56:33.127Z,16.76
2022-10-24T12:59:28.955Z,16.81
2022-10-24T13:02:31.442Z,16.81
2022-10-24T13:05:19.618Z,16.82
2022-10-24T13:08:00.928Z,16.82
2022-10-24T13:11:04.493Z,16.86
2022-10-24T13:13:55.960Z,17.03
2022-10-24T13:16:35.705Z,17.14
2022-10-24T13:19:04.922Z,17.10
2022-10-24T13:21:54.812Z,17.08
2022-10-24T13:24:23.629Z,17.07
2022-10-24T13:27:12.713Z,17.10
2022-10-24T13:29:41.197Z,17.15
2022-10-24T13:32:11.543Z,17.14
2022-10-24T13:34:53.854Z,17.10
2022-10-24T13:37:27.703Z,17.07
2022-10-24T13:39:57.107Z,17.06
2022-10-24T13:42:28.814Z,17.11
2022-10-24T13:45:03.714Z,17.07
2022-10-24T13:47:41.915Z,17.06
2022-10-24T13:50:22.524Z,17.11
2022-10-24T13:52:57.711Z,17.17
2022-10-24T13:55:36.426Z,17.09
2022-10-24T13:58:06.768Z,17.14
2022-10-24T14:00:40.561Z,17.08
2022-10-24T14:03:19.866Z,17.01
2022-10-24T14:05:53.035Z,17.11
2022-10-24T14:08:34.137Z,16.98
2022-10-24T14:11:05.050Z,16.95
2022-10-24T14:13:36.725Z,16.96
2022-10-24T14:16:06.815Z,16.91
2022-10-24T14:18:36.961Z,16.92
2022-10-24T14:21:05.476Z,16.92
2022-10-24T14:23:40.192Z,16.84
2022-10-24T14:26:12.255Z,16.80
2022-10-24T14:28:44.895Z,16.78
2022-10-24T14:31:25.018Z,16.76
2022-10-24T14:33:55.425Z,16.73
2022-10-24T14:36:25.647Z,16.71
2022-10-24T14:38:56.295Z,16.66
2022-10-24T14:41:32.241Z,16.68
2022-10-24T14:44:00.373Z,16.64
2022-10-24T14:46:36.841Z,16.61
2022-10-24T14:49:30.740Z,16.58
2022-10-24T14:52:10.288Z,16.69
2022-10-24T14:54:39.129Z,16.66
2022-10-24T14:57:13.638Z,16.78
2022-10-24T14:59:44.987Z,16.97
2022-10-24T15:02:25.366Z,17.14
2022-10-24T15:04:54.006Z,17.21
2022-10-24T15:07:31.373Z,17.32
2022-10-24T15:10:01.030Z,17.39
2022-10-24T15:12:32.112Z,17.25
2022-10-24T15:15:24.436Z,17.18
2022-10-24T15:18:08.329Z,17.13
2022-10-24T15:20:39.025Z,17.07
2022-10-24T15:23:07.519Z,17.01
2022-10-24T15:25:39.298Z,16.97
2022-10-24T15:28:38.636Z,16.92
2022-10-24T15:31:11.207Z,16.84
2022-10-24T15:36:09.134Z,16.76
2022-10-24T15:38:40.471Z,16.73
2022-10-24T15:41:10.184Z,16.73
2022-10-24T15:43:37.536Z,16.67
2022-10-24T15:46:05.012Z,16.60
2022-10-24T15:48:32.504Z,16.55
2022-10-24T15:50:59.972Z,16.45
2022-10-24T15:53:27.387Z,16.35
2022-10-24T15:55:54.712Z,16.29
2022-10-24T15:58:22.087Z,16.23
2022-10-24T16:00:50.959Z,16.11
2022-10-24T16:03:23.418Z,15.95
2022-10-24T16:05:53.359Z,15.87
2022-10-24T16:08:20.817Z,15.82
2022-10-24T16:10:52.688Z,15.72
2022-10-24T16:13:22.409Z,15.59
2022-10-24T16:15:50.182Z,15.58
2022-10-24T16:18:17.841Z,15.53
2022-10-24T16:20:45.312Z,15.50
2022-10-24T16:23:15.276Z,15.44
2022-10-24T16:25:42.730Z,15.41
2022-10-24T16:28:10.313Z,15.34
2022-10-24T16:30:39.661Z,15.29
2022-10-24T16:33:07.082Z,15.23
2022-10-24T16:35:35.935Z,15.30
2022-10-24T16:38:04.358Z,15.18
2022-10-24T16:40:32.351Z,15.20
2022-10-24T16:43:01.924Z,15.16
2022-10-24T16:45:29.293Z,15.18
2022-10-24T16:47:56.663Z,15.23
2022-10-24T16:50:26.452Z,15.19
2022-10-24T16:52:55.769Z,15.09
2022-10-24T16:55:23.442Z,14.98
2022-10-24T16:57:52.155Z,15.05
2022-10-24T17:00:21.461Z,15.06
2022-10-24T17:02:51.219Z,15.04
2022-10-24T17:05:20.472Z,15.23
2022-10-24T17:07:48.228Z,15.25
2022-10-24T17:10:18.436Z,15.22
2022-10-24T17:12:48.296Z,15.40
2022-10-24T17:15:20.839Z,15.15
2022-10-24T17:17:49.744Z,15.02
2022-10-24T17:20:17.729Z,14.97
2022-10-24T17:22:46.472Z,14.88
2022-10-24T17:25:23.363Z,15.02
2022-10-24T17:27:51.324Z,14.76
2022-10-24T17:30:22.274Z,14.62
2022-10-24T17:32:50.258Z,14.51
2022-10-24T17:35:20.778Z,14.30
2022-10-24T17:37:56.145Z,14.23
2022-10-24T17:40:26.439Z,14.19
2022-10-24T17:42:53.891Z,14.15
2022-10-24T17:45:23.663Z,14.12
2022-10-24T17:47:51.465Z,14.06
2022-10-24T17:50:19.384Z,14.07
2022-10-24T17:52:50.906Z,13.96
2022-10-24T17:58:12.209Z,14.13
2022-10-24T18:00:40.169Z,14.09
2022-10-24T18:03:08.698Z,13.98
2022-10-24T18:05:38.318Z,13.92
2022-10-24T18:08:08.054Z,14.03
2022-10-24T18:10:37.580Z,13.95
2022-10-24T18:13:05.246Z,14.08
2022-10-24T18:15:32.694Z,14.09
2022-10-24T18:18:00.156Z,13.99
2022-10-24T18:20:27.604Z,13.74
2022-10-24T18:22:54.981Z,13.39
2022-10-24T18:25:23.092Z,13.40
2022-10-24T18:27:51.065Z,13.41
2022-10-24T18:30:19.502Z,13.47
2022-10-24T18:32:47.953Z,13.34
2022-10-24T18:35:15.772Z,13.16
2022-10-24T18:37:43.186Z,12.42
2022-10-24T18:40:11.125Z,12.01
2022-10-24T18:42:43.776Z,11.73
2022-10-24T18:45:13.705Z,11.50
2022-10-24T18:47:41.609Z,11.30
2022-10-24T18:50:17.631Z,11.18
2022-10-24T18:52:54.061Z,11.12
2022-10-24T18:55:27.005Z,11.11
2022-10-24T18:57:54.800Z,11.03
2022-10-24T19:00:24.509Z,11.05
2022-10-24T19:03:19.676Z,11.21
2022-10-24T19:05:54.853Z,11.25
2022-10-24T19:08:24.387Z,11.21
2022-10-24T19:10:53.402Z,11.20
2022-10-24T19:13:20.949Z,11.12
2022-10-24T19:15:57.694Z,11.14
2022-10-24T19:18:26.548Z,11.22
2022-10-24T19:20:54.169Z,11.27
2022-10-24T19:23:21.492Z,11.34
2022-10-24T19:25:48.998Z,11.35
2022-10-24T19:28:18.530Z,11.40
2022-10-24T19:30:47.016Z,11.36
2022-10-24T19:33:15.049Z,11.35
2022-10-24T19:35:47.155Z,11.28
2022-10-24T19:38:16.155Z,11.23
2022-10-24T19:40:51.987Z,11.17
2022-10-24T19:43:20.817Z,11.10
2022-10-24T19:45:55.063Z,11.20
2022-10-24T19:48:37.757Z,11.52
2022-10-24T19:51:11.039Z,11.68
2022-10-24T19:53:40.731Z,11.65
2022-10-24T19:56:13.688Z,11.54
2022-10-24T19:58:41.701Z,11.39
2022-10-24T20:01:15.276Z,11.34
2022-10-24T20:03:44.884Z,11.31
2022-10-24T20:06:12.983Z,11.26
2022-10-24T20:08:40.758Z,11.31
2022-10-24T20:11:08.670Z,11.43
2022-10-24T20:13:36.115Z,11.51
2022-10-24T20:16:05.969Z,11.41
2022-10-24T20:18:35.330Z,11.43
2022-10-24T20:21:04.662Z,11.43
2022-10-24T20:23:32.758Z,11.38
2022-10-24T20:26:14.997Z,11.50
2022-10-24T20:28:44.403Z,11.49
2022-10-24T20:31:27.200Z,11.54
2022-10-24T20:34:02.204Z,11.56
2022-10-24T20:36:32.670Z,11.56
2022-10-24T20:39:03.042Z,11.64
2022-10-24T20:41:30.781Z,11.65
2022-10-24T20:43:58.124Z,11.61
2022-10-24T20:46:25.557Z,11.50
2022-10-24T20:48:53.843Z,11.59
2022-10-24T20:51:21.565Z,11.68
2022-10-24T20:53:49.350Z,11.89
2022-10-24T20:56:20.053Z,11.78
2022-10-24T20:58:47.667Z,11.90
2022-10-24T21:01:17.718Z,11.89
2022-10-24T21:03:45.205Z,11.83
2022-10-24T21:06:19.540Z,11.85
2022-10-24T21:08:51.040Z,11.97
2022-10-24T21:11:24.906Z,11.94
2022-10-24T21:13:57.621Z,11.90
2022-10-24T21:16:25.376Z,11.87
2022-10-24T21:18:53.173Z,11.82
2022-10-24T21:21:21.480Z,11.76
2022-10-24T21:23:53.477Z,11.80
2022-10-24T21:26:21.088Z,11.75
2022-10-24T21:28:48.784Z,11.70
2022-10-24T21:31:18.277Z,11.76
2022-10-24T21:33:45.991Z,11.70
2022-10-24T21:36:22.741Z,11.78
2022-10-24T21:38:52.700Z,11.62
2022-10-24T21:41:21.417Z,11.57
2022-10-24T21:43:50.714Z,11.53
2022-10-24T21:46:22.534Z,11.45
2022-10-24T21:48:51.241Z,11.42
2022-10-24T21:51:30.309Z,11.33
2022-10-24T21:54:00.075Z,11.28
2022-10-24T21:56:29.971Z,11.17
2022-10-24T21:59:00.799Z,11.11
2022-10-24T22:01:30.987Z,11.13
2022-10-24T22:03:59.735Z,10.96
2022-10-24T22:06:28.543Z,10.80
2022-10-24T22:08:56.693Z,10.60
2022-10-24T22:11:29.724Z,10.87
2022-10-24T22:13:57.458Z,11.04
2022-10-24T22:16:27.190Z,10.79
2022-10-24T22:18:54.785Z,10.73
2022-10-24T22:21:29.489Z,10.65
2022-10-24T22:24:02.098Z,10.70
2022-10-24T22:26:30.105Z,10.62
2022-10-24T22:28:57.507Z,10.70
2022-10-24T22:31:26.971Z,10.83
2022-10-24T22:33:54.651Z,10.69
2022-10-24T22:36:37.228Z,10.78
2022-10-24T22:39:05.923Z,10.86
2022-10-24T22:41:33.400Z,10.83
2022-10-24T22:44:00.999Z,10.60
2022-10-24T22:47:06.901Z,10.69
2022-10-24T22:49:36.995Z,10.78
2022-10-24T22:52:04.781Z,10.65
2022-10-24T22:54:35.678Z,10.53
2022-10-24T22:57:03.999Z,10.30
2022-10-24T22:59:31.788Z,10.27
2022-10-24T23:02:14.524Z,10.27
2022-10-24T23:04:45.111Z,10.20
2022-10-24T23:07:26.682Z,9.91
2022-10-24T23:09:55.121Z,10.11
2022-10-24T23:12:22.936Z,9.87
2022-10-24T23:14:51.237Z,9.83
2022-10-24T23:17:24.108Z,9.81
2022-10-24T23:19:51.845Z,9.78
2022-10-24T23:22:30.305Z,9.93
2022-10-24T23:25:01.737Z,9.67
2022-10-24T23:27:39.374Z,9.69
2022-10-24T23:30:17.643Z,9.68
2022-10-24T23:32:45.877Z,9.47
2022-10-24T23:35:14.297Z,9.65
2022-10-24T23:37:47.634Z,9.59
2022-10-24T23:40:18.111Z,9.76
2022-10-24T23:42:46.889Z,9.61
2022-10-24T23:45:16.163Z,9.81
2022-10-24T23:48:17.580Z,9.69
2022-10-24T23:50:59.592Z,9.79
2022-10-24T23:53:54.787Z,9.65
2022-10-24T23:56:24.596Z,9.88
2022-10-24T23:58:52.564Z,9.60
